Canova, New Mexico
Current Conditions -  °F | °C
As of 2:15 PM on Tuesday 21 Oct 2014 (Local Time) from KLAM Reporting Station
Overcast Overcast  
Wind Chill: 54°   Ceiling: 6500
Heat Index: 54°   Visibility: 10mi
Dew Point: 46°   Wind: 7mph
Humidity: 75%   Direction: 170°S
Pressure: 30.19"   Gusts: NA
Location:  36.1592°N, 105.984°W
Report Text: KLAM 212015Z AUTO 17006KT 10SM OVC065 12/08 A3019 RMK AO2 T01220078
Loading
Personal Weather Stations






























Interactive Weather Map
Tropical Storm Tracking
New forecast layout! Learn more

10-Day Weather Forecast

Advertisements
Track Severe Weather on mobile